Time;durP1;ratioP1;P1;durP2;ratioP2;P2;SDS_P1;SDS_P2;PMS_P1;PMS_P2;Temp;Humidity;BMP_temperature;BMP_pressure;BME280_temperature;BME280_humidity;BME280_pressure;Samples;Min_cycle;Max_cycle;Signal;HPM_P1;HPM_P2
2022/03/29 00:01:14;;;;;;;25.95;13.02;;;;;;;12.50;49.03;101630.28;4950232;28;124504;-61
2022/03/29 00:03:43;;;;;;;31.10;13.73;;;;;;;12.47;48.96;101625.13;4952565;28;124087;-61
2022/03/29 00:06:11;;;;;;;28.92;13.93;;;;;;;12.45;49.04;101616.31;4932843;28;115401;-61
2022/03/29 00:08:38;;;;;;;27.63;13.30;;;;;;;12.42;49.11;101617.31;4951285;28;115206;-61
2022/03/29 00:11:05;;;;;;;30.27;14.05;;;;;;;12.41;49.21;101625.34;4928890;28;124067;-61
2022/03/29 00:13:32;;;;;;;26.83;13.55;;;;;;;12.40;49.53;101613.00;4915876;28;123589;-61
2022/03/29 00:15:59;;;;;;;28.25;13.93;;;;;;;12.38;49.36;101614.88;4931265;28;113976;-61
2022/03/29 00:18:26;;;;;;;29.20;14.80;;;;;;;12.36;49.45;101606.09;4933338;28;114143;-61
2022/03/29 00:20:53;;;;;;;29.10;13.90;;;;;;;12.35;49.72;101607.00;4932844;28;124162;-61
2022/03/29 00:23:21;;;;;;;26.27;13.98;;;;;;;12.34;49.65;101605.25;4932138;28;124382;-62
2022/03/29 00:25:48;;;;;;;29.75;14.57;;;;;;;12.33;49.73;101606.22;4932245;28;114260;-62
2022/03/29 00:28:15;;;;;;;29.90;14.20;;;;;;;12.32;49.63;101605.34;4930695;28;114270;-62
2022/03/29 00:30:43;;;;;;;27.75;14.32;;;;;;;12.31;49.76;101598.28;4929985;28;124479;-61
2022/03/29 00:33:10;;;;;;;31.58;14.57;;;;;;;12.33;49.73;101600.91;4932639;28;123816;-61
2022/03/29 00:35:38;;;;;;;28.83;14.27;;;;;;;12.31;49.68;101597.44;4930570;28;114170;-61
2022/03/29 00:38:06;;;;;;;30.00;14.85;;;;;;;12.30;49.94;101596.59;4936147;28;114831;-61
2022/03/29 00:40:33;;;;;;;29.77;15.18;;;;;;;12.29;49.88;101596.63;4950513;28;124588;-61
2022/03/29 00:43:00;;;;;;;28.23;14.88;;;;;;;12.27;49.77;101591.38;4951724;28;124608;-61
2022/03/29 00:45:27;;;;;;;29.60;15.02;;;;;;;12.23;49.96;101585.31;4952203;28;114601;-61
2022/03/29 00:47:54;;;;;;;30.55;15.00;;;;;;;12.21;49.79;101587.19;4953465;28;114062;-61
2022/03/29 00:50:21;;;;;;;31.42;14.93;;;;;;;12.20;49.97;101588.09;4949389;28;124281;-61
2022/03/29 00:52:48;;;;;;;32.00;16.17;;;;;;;12.17;49.84;101579.41;4950558;28;123944;-61
2022/03/29 00:55:16;;;;;;;29.30;15.30;;;;;;;12.13;50.03;101578.66;4934892;28;114438;-61
2022/03/29 00:57:45;;;;;;;32.92;15.52;;;;;;;12.08;50.15;101575.31;4953070;28;114954;-60
2022/03/29 01:00:15;;;;;;;28.42;14.95;;;;;;;12.02;50.12;101570.25;4934398;28;123241;-61
2022/03/29 01:02:43;;;;;;;33.60;15.82;;;;;;;11.97;50.32;101569.56;4952079;28;123961;-61
2022/03/29 01:05:11;;;;;;;31.38;15.95;;;;;;;11.92;50.38;101574.19;4950214;28;114295;-61
2022/03/29 01:07:39;;;;;;;31.30;15.73;;;;;;;11.86;50.13;101565.50;4951248;28;114259;-62
2022/03/29 01:10:07;;;;;;;30.60;16.20;;;;;;;11.80;50.57;101565.72;4947777;28;123860;-61
2022/03/29 01:12:36;;;;;;;31.30;15.95;;;;;;;11.76;50.49;101566.78;4932864;28;124724;-61
2022/03/29 01:15:08;;;;;;;32.38;16.20;;;;;;;11.72;50.82;101562.53;4952465;28;114037;-60
2022/03/29 01:17:43;;;;;;;34.03;16.83;;;;;;;11.68;50.72;101555.59;4950024;28;113956;-60
2022/03/29 01:20:17;;;;;;;33.38;16.38;;;;;;;11.65;50.69;101558.38;4917897;28;123078;-60
2022/03/29 01:22:47;;;;;;;32.53;16.58;;;;;;;11.63;50.63;101557.56;4934133;28;123642;-60
2022/03/29 01:25:22;;;;;;;35.55;16.85;;;;;;;11.62;51.02;101555.81;4916337;28;114657;-60
2022/03/29 01:27:51;;;;;;;35.15;17.45;;;;;;;11.57;50.76;101552.50;4952463;28;114052;-61
2022/03/29 01:30:20;;;;;;;35.17;17.17;;;;;;;11.54;50.91;101552.59;4931167;28;124248;-60
2022/03/29 01:32:50;;;;;;;33.45;17.00;;;;;;;11.49;51.04;101551.00;4949587;28;124306;-61
2022/03/29 01:35:21;;;;;;;31.48;15.85;;;;;;;11.46;51.14;101545.78;4934640;28;113414;-61
2022/03/29 01:37:49;;;;;;;34.50;16.77;;;;;;;11.44;50.93;101547.63;4949923;28;114264;-61
2022/03/29 01:40:19;;;;;;;36.38;16.95;;;;;;;11.41;51.15;101550.41;4948279;28;123997;-61
2022/03/29 01:42:49;;;;;;;34.03;16.42;;;;;;;11.39;51.12;101549.59;4949378;28;124229;-61
2022/03/29 01:45:17;;;;;;;34.05;17.30;;;;;;;11.38;51.22;101542.56;4931559;28;115173;-61
2022/03/29 01:47:44;;;;;;;33.90;16.98;;;;;;;11.35;51.40;101537.38;4951041;28;116121;-62
2022/03/29 01:50:12;;;;;;;32.58;16.67;;;;;;;11.34;51.17;101535.66;4950815;28;124211;-62
2022/03/29 01:52:45;;;;;;;33.63;17.15;;;;;;;11.30;51.23;101542.84;4929460;28;123778;-61
2022/03/29 01:55:16;;;;;;;35.38;17.85;;;;;;;11.26;51.40;101528.00;4929801;28;114358;-61
2022/03/29 01:57:43;;;;;;;35.58;17.42;;;;;;;11.23;51.51;101538.69;4931063;28;113909;-61
2022/03/29 02:02:59;;;;;;;38.05;17.75;;;;;;;11.17;51.78;101527.44;4914092;28;123493;-61
2022/03/29 02:05:27;;;;;;;35.85;17.70;;;;;;;11.12;51.54;101518.81;4914542;28;113017;-62
2022/03/29 02:07:54;;;;;;;36.75;18.08;;;;;;;11.09;51.78;101525.94;4929672;28;114341;-62
2022/03/29 02:10:22;;;;;;;35.45;17.80;;;;;;;11.06;51.49;101515.44;4930278;28;124478;-61
2022/03/29 02:12:50;;;;;;;35.88;18.80;;;;;;;11.00;52.03;101510.38;4950255;28;125505;-62
2022/03/29 02:15:19;;;;;;;36.63;18.67;;;;;;;10.96;51.84;101506.09;4951021;28;114307;-62
2022/03/29 02:17:49;;;;;;;40.30;18.92;;;;;;;10.91;52.11;101510.72;4951196;28;115415;-61
2022/03/29 02:20:17;;;;;;;39.92;19.65;;;;;;;10.86;51.85;101510.00;4948299;28;124244;-61
2022/03/29 02:22:45;;;;;;;39.67;20.08;;;;;;;10.81;52.42;101504.88;4949028;28;123699;-61
2022/03/29 02:25:13;;;;;;;36.90;18.50;;;;;;;10.76;52.39;101505.97;4950842;28;114717;-62
2022/03/29 02:27:41;;;;;;;39.38;18.73;;;;;;;10.71;52.12;101499.00;4948450;28;114297;-61
2022/03/29 02:30:11;;;;;;;38.90;19.45;;;;;;;10.67;52.36;101497.38;4949827;28;124145;-61
2022/03/29 02:32:39;;;;;;;41.97;19.65;;;;;;;10.62;52.85;101494.03;4948052;28;124296;-61
2022/03/29 02:35:07;;;;;;;39.08;20.13;;;;;;;10.56;52.64;101488.94;4930586;28;115473;-62
2022/03/29 02:37:34;;;;;;;39.72;19.38;;;;;;;10.51;53.00;101486.47;4949458;28;115889;-62
2022/03/29 02:40:03;;;;;;;42.15;20.85;;;;;;;10.48;52.81;101475.13;4949457;28;124116;-62
2022/03/29 02:42:30;;;;;;;38.95;20.45;;;;;;;10.43;53.12;101471.75;4931180;28;124327;-62
2022/03/29 02:44:57;;;;;;;41.85;20.80;;;;;;;10.38;53.17;101468.38;4948315;28;114289;-62
2022/03/29 02:47:25;;;;;;;45.70;21.92;;;;;;;10.33;53.54;101472.06;4947989;28;114106;-62
2022/03/29 02:49:52;;;;;;;39.88;19.42;;;;;;;10.28;53.17;101463.41;4947719;28;124905;-62
2022/03/29 02:52:19;;;;;;;45.08;21.38;;;;;;;10.26;53.28;101470.50;4947132;28;123787;-63
2022/03/29 02:54:46;;;;;;;41.20;20.00;;;;;;;10.23;53.55;101470.63;4942567;28;114434;-61
2022/03/29 02:57:13;;;;;;;40.60;19.63;;;;;;;10.22;53.53;101463.59;4951038;28;114526;-61
2022/03/29 02:59:40;;;;;;;43.17;20.63;;;;;;;10.23;53.33;101465.34;4946764;28;124398;-61
2022/03/29 03:02:07;;;;;;;42.80;20.23;;;;;;;10.22;53.35;101458.28;4948645;28;124458;-61
2022/03/29 03:04:35;;;;;;;41.65;20.15;;;;;;;10.20;53.64;101460.13;4950691;28;114484;-62
2022/03/29 03:07:02;;;;;;;45.15;20.45;;;;;;;10.18;53.84;101454.03;4950321;28;114070;-62
2022/03/29 03:09:29;;;;;;;47.50;20.73;;;;;;;10.16;53.50;101455.88;4932607;28;123615;-62
2022/03/29 03:11:56;;;;;;;42.47;20.35;;;;;;;10.14;53.94;101447.09;4947318;28;123773;-62
2022/03/29 03:14:23;;;;;;;44.83;20.92;;;;;;;10.12;53.79;101446.28;4950498;28;114988;-62
2022/03/29 03:16:50;;;;;;;47.08;21.08;;;;;;;10.10;53.98;101442.84;4949810;28;114660;-61
2022/03/29 03:19:35;;;;;;;48.42;21.90;;;;;;;10.08;54.26;101442.03;4949475;28;124523;-62
2022/03/29 03:22:03;;;;;;;50.03;22.00;;;;;;;10.05;54.46;101444.75;4947514;28;123616;-61
2022/03/29 03:24:31;;;;;;;47.67;20.45;;;;;;;10.01;54.73;101443.13;4932416;28;116064;-61
2022/03/29 03:26:58;;;;;;;44.03;20.85;;;;;;;9.96;54.60;101440.63;4948962;28;115080;-62
2022/03/29 03:29:25;;;;;;;46.08;20.85;;;;;;;9.92;54.58;101439.84;4948778;28;123898;-61
2022/03/29 03:31:52;;;;;;;49.20;23.85;;;;;;;9.88;55.15;101438.22;4947083;28;124642;-61
2022/03/29 03:34:19;;;;;;;50.63;21.33;;;;;;;9.86;54.89;101429.50;4952574;28;114390;-61
2022/03/29 03:36:46;;;;;;;52.03;22.45;;;;;;;9.85;55.05;101438.34;4953778;28;113984;-61
2022/03/29 03:39:14;;;;;;;46.28;20.88;;;;;;;9.83;55.35;101437.53;4951687;28;124750;-61
2022/03/29 03:41:41;;;;;;;48.90;21.50;;;;;;;9.82;55.19;101438.44;4951683;28;124717;-61
2022/03/29 03:44:09;;;;;;;49.75;23.20;;;;;;;9.82;55.69;101434.94;4953753;28;114332;-61
2022/03/29 03:46:36;;;;;;;48.80;21.75;;;;;;;9.81;55.40;101442.00;4951151;28;113971;-61
2022/03/29 03:49:03;;;;;;;50.17;21.85;;;;;;;9.81;55.74;101426.13;4950511;28;124372;-62
2022/03/29 03:51:30;;;;;;;53.67;22.63;;;;;;;9.80;55.57;101424.41;4952535;28;124535;-62
2022/03/29 03:53:58;;;;;;;51.95;22.08;;;;;;;9.80;55.42;101419.13;4953420;28;114579;-62
2022/03/29 03:56:25;;;;;;;47.78;22.85;;;;;;;9.81;55.53;101426.13;4950919;28;113748;-61
2022/03/29 03:58:52;;;;;;;49.60;21.85;;;;;;;9.81;55.82;101420.81;4934811;28;124789;-62
2022/03/29 04:01:19;;;;;;;50.05;21.45;;;;;;;9.79;55.57;101412.06;4952246;28;124000;-61
2022/03/29 04:03:46;;;;;;;54.10;21.98;;;;;;;9.77;55.78;101413.91;4953388;28;114578;-62
2022/03/29 04:06:13;;;;;;;51.55;22.90;;;;;;;9.74;56.01;101408.75;4936739;28;114833;-62
2022/03/29 04:08:40;;;;;;;53.88;20.50;;;;;;;9.71;56.44;101400.91;4951277;28;123952;-62
2022/03/29 04:11:08;;;;;;;50.47;22.13;;;;;;;9.68;56.28;101395.69;4953750;28;124468;-61
2022/03/29 04:13:35;;;;;;;53.13;22.13;;;;;;;9.65;56.55;101394.03;4930622;28;114956;-61
2022/03/29 04:16:03;;;;;;;51.20;21.10;;;;;;;9.65;56.65;101399.31;4933344;28;115288;-61
2022/03/29 04:18:30;;;;;;;50.30;22.13;;;;;;;9.66;56.70;101395.78;4930234;28;124309;-61
2022/03/29 04:20:58;;;;;;;53.13;21.48;;;;;;;9.69;56.91;101400.09;4912725;28;124009;-61
2022/03/29 04:23:25;;;;;;;50.25;20.40;;;;;;;9.69;56.64;101385.06;4932137;28;114412;-61
2022/03/29 04:25:52;;;;;;;53.92;22.58;;;;;;;9.70;56.68;101388.56;4932937;28;114835;-61
2022/03/29 04:28:20;;;;;;;51.13;22.25;;;;;;;9.68;56.61;101393.94;4930828;28;124408;-61
2022/03/29 04:30:47;;;;;;;54.72;22.17;;;;;;;9.67;56.65;101386.91;4915835;28;122654;-61
2022/03/29 04:33:14;;;;;;;57.47;22.42;;;;;;;9.67;57.11;101380.75;4931864;28;114289;-61
2022/03/29 04:35:41;;;;;;;52.45;21.95;;;;;;;9.66;56.99;101373.72;4931576;28;114265;-61
2022/03/29 04:38:08;;;;;;;55.70;22.80;;;;;;;9.67;57.44;101370.19;4930448;28;124264;-62
2022/03/29 04:40:35;;;;;;;51.30;21.70;;;;;;;9.68;57.08;101371.88;4929754;28;124280;-62
2022/03/29 04:43:02;;;;;;;52.90;22.25;;;;;;;9.70;57.29;101370.06;4916512;28;113064;-62
2022/03/29 04:45:30;;;;;;;56.83;23.00;;;;;;;9.72;57.24;101362.97;4915876;28;113555;-61
2022/03/29 04:47:57;;;;;;;59.13;22.27;;;;;;;9.74;57.30;101371.72;4930794;28;124122;-61
2022/03/29 04:50:26;;;;;;;54.88;21.58;;;;;;;9.76;57.09;101372.53;4931652;28;123788;-61
2022/03/29 04:52:53;;;;;;;56.00;22.52;;;;;;;9.77;57.27;101365.44;4951595;28;114268;-61
2022/03/29 04:55:20;;;;;;;52.33;21.67;;;;;;;9.80;57.12;101371.50;4950839;28;113884;-61
2022/03/29 04:57:49;;;;;;;51.53;22.05;;;;;;;9.80;57.02;101368.84;4952109;28;124688;-61
2022/03/29 05:00:20;;;;;;;52.75;20.63;;;;;;;9.81;57.02;101373.22;4949216;28;124344;-61
2022/03/29 05:02:48;;;;;;;56.08;21.85;;;;;;;9.83;57.32;101376.69;4950650;28;115895;-61
2022/03/29 05:05:16;;;;;;;52.58;20.90;;;;;;;9.84;57.04;101373.13;4951714;28;115132;-61
2022/03/29 05:07:43;;;;;;;51.88;21.58;;;;;;;9.83;56.84;101371.41;4949680;28;123802;-61
2022/03/29 05:10:11;;;;;;;49.13;21.35;;;;;;;9.84;57.24;101364.31;4949267;28;124921;-61
2022/03/29 05:12:43;;;;;;;49.78;21.17;;;;;;;9.84;57.19;101362.53;4949904;28;114027;-62
2022/03/29 05:15:16;;;;;;;51.58;21.20;;;;;;;9.83;57.09;101355.53;4950000;28;114468;-62
2022/03/29 05:17:44;;;;;;;55.03;21.30;;;;;;;9.81;57.30;101365.28;4950940;28;123763;-61
2022/03/29 05:20:12;;;;;;;54.58;21.00;;;;;;;9.80;57.37;101355.63;4950364;28;123839;-62
2022/03/29 05:22:53;;;;;;;51.13;21.08;;;;;;;9.78;57.56;101360.09;4933579;28;114443;-61
2022/03/29 05:25:25;;;;;;;50.03;19.88;;;;;;;9.77;57.13;101363.66;4949300;28;114315;-61
2022/03/29 05:27:53;;;;;;;47.85;20.83;;;;;;;9.77;57.72;101366.28;4949417;28;124753;-62
2022/03/29 05:30:21;;;;;;;60.85;20.80;;;;;;;9.76;57.46;101367.22;4932445;28;123174;-61
2022/03/29 05:32:51;;;;;;;52.28;19.90;;;;;;;9.73;57.79;101367.31;4950894;28;114476;-62
2022/03/29 05:35:18;;;;;;;52.13;19.27;;;;;;;9.70;57.51;101370.06;4951940;28;114057;-62
2022/03/29 05:37:46;;;;;;;49.13;20.05;;;;;;;9.68;57.63;101361.31;4933480;28;122904;-62
2022/03/29 05:40:13;;;;;;;53.75;20.90;;;;;;;9.66;58.07;101363.13;4933774;28;122876;-62
2022/03/29 05:42:42;;;;;;;53.20;20.67;;;;;;;9.65;58.16;101366.72;4934098;28;113035;-62
2022/03/29 05:45:11;;;;;;;53.13;19.23;;;;;;;9.65;58.05;101367.56;4950536;28;114347;-62
2022/03/29 05:50:27;;;;;;;52.85;18.38;;;;;;;9.68;57.97;101361.31;4949430;28;124175;-62
2022/03/29 05:52:56;;;;;;;55.03;20.17;;;;;;;9.68;57.98;101366.59;4950404;28;115157;-62
2022/03/29 05:55:24;;;;;;;52.95;20.17;;;;;;;9.66;58.00;101357.84;4951324;28;115627;-62
2022/03/29 05:57:52;;;;;;;52.25;19.23;;;;;;;9.64;58.54;101357.03;4948480;28;124253;-62
2022/03/29 06:00:23;;;;;;;51.13;20.55;;;;;;;9.63;58.50;101357.97;4933397;28;122990;-62
2022/03/29 06:02:53;;;;;;;56.90;20.48;;;;;;;9.63;58.61;101360.63;4950340;28;114529;-62
2022/03/29 06:05:20;;;;;;;60.35;21.58;;;;;;;9.63;58.50;101358.84;4950744;28;113961;-62
2022/03/29 06:07:48;;;;;;;53.10;20.20;;;;;;;9.65;58.58;101356.13;4949732;28;124356;-62
2022/03/29 06:10:15;;;;;;;53.03;19.33;;;;;;;9.64;58.56;101370.25;4951014;28;123769;-62
2022/03/29 06:12:46;;;;;;;54.72;21.63;;;;;;;9.64;58.78;101365.81;4931795;28;113220;-63
2022/03/29 06:15:15;;;;;;;56.53;21.30;;;;;;;9.67;58.99;101364.88;4937080;28;114099;-62
2022/03/29 06:17:42;;;;;;;56.45;20.92;;;;;;;9.68;59.11;101363.94;4947835;28;123709;-62
2022/03/29 06:20:10;;;;;;;56.45;20.23;;;;;;;9.68;58.92;101356.91;4948995;28;123714;-62
2022/03/29 06:22:44;;;;;;;56.17;19.85;;;;;;;9.68;58.87;101356.00;4950125;28;114246;-62
2022/03/29 06:25:13;;;;;;;54.20;21.02;;;;;;;9.68;58.82;101356.00;4931467;28;114408;-62
2022/03/29 06:27:41;;;;;;;53.45;19.90;;;;;;;9.68;58.98;101356.00;4949910;28;124360;-62
2022/03/29 06:30:09;;;;;;;54.03;20.50;;;;;;;9.69;59.19;101363.06;4931535;28;123028;-62
2022/03/29 06:32:47;;;;;;;60.15;22.42;;;;;;;9.68;59.58;101356.00;4949786;28;113837;-63
2022/03/29 06:35:18;;;;;;;56.33;21.45;;;;;;;9.68;59.44;101362.19;4945830;28;114567;-62
2022/03/29 06:37:45;;;;;;;60.47;21.08;;;;;;;9.69;59.55;101352.47;4949521;28;124812;-62
2022/03/29 06:40:12;;;;;;;58.40;21.77;;;;;;;9.72;59.68;101357.69;4949426;28;124186;-62
2022/03/29 06:42:39;;;;;;;60.72;20.30;;;;;;;9.76;59.43;101364.59;4948065;28;115353;-63
2022/03/29 06:45:09;;;;;;;56.58;21.17;;;;;;;9.78;59.48;101360.09;4948349;28;115158;-60
2022/03/29 06:47:36;;;;;;;55.88;20.13;;;;;;;9.82;59.44;101364.38;4949018;28;123979;-61
2022/03/29 06:50:04;;;;;;;54.80;20.65;;;;;;;9.84;59.73;101367.81;4946585;28;124672;-61
2022/03/29 06:52:39;;;;;;;51.63;19.65;;;;;;;9.85;59.53;101363.38;4947913;28;114493;-61
2022/03/29 06:55:08;;;;;;;52.60;19.70;;;;;;;9.87;59.80;101367.75;4947060;28;114086;-61
2022/03/29 06:57:43;;;;;;;51.85;20.25;;;;;;;9.90;59.62;101362.31;4928443;28;124667;-61
2022/03/29 07:00:12;;;;;;;54.28;19.98;;;;;;;9.92;59.58;101360.47;4915454;28;123340;-61
2022/03/29 07:02:39;;;;;;;59.47;20.77;;;;;;;9.91;59.64;101348.19;4947888;28;117754;-62
2022/03/29 07:05:07;;;;;;;53.35;20.30;;;;;;;9.91;59.70;101353.47;4944339;28;114196;-62
2022/03/29 07:07:35;;;;;;;55.15;22.13;;;;;;;9.92;59.60;101355.19;4941288;28;124288;-62
2022/03/29 07:12:54;;;;;;;51.28;20.77;;;;;;;9.93;59.68;101356.94;4951946;28;114325;-62
2022/03/29 07:15:23;;;;;;;65.00;22.63;;;;;;;9.95;60.03;101354.25;4951262;28;114253;-61
2022/03/29 07:17:50;;;;;;;56.03;21.30;;;;;;;9.97;59.99;101356.84;4933827;28;125011;-61
2022/03/29 07:20:21;;;;;;;53.65;20.70;;;;;;;9.99;60.09;101355.88;4950802;28;123845;-61
2022/03/29 07:22:50;;;;;;;61.03;22.88;;;;;;;10.01;59.94;101363.75;4935232;28;115217;-61
2022/03/29 07:25:19;;;;;;;58.83;21.38;;;;;;;10.02;60.06;101365.47;4934725;28;113616;-61
2022/03/29 07:27:49;;;;;;;56.17;21.33;;;;;;;10.02;59.82;101360.16;4954184;28;124600;-61
2022/03/29 07:30:16;;;;;;;59.42;22.25;;;;;;;10.02;59.87;101350.47;4953564;28;123972;-61
2022/03/29 07:32:52;;;;;;;59.25;22.17;;;;;;;10.03;59.83;101357.47;4953648;28;114224;-62
2022/03/29 07:35:20;;;;;;;;;;;;;;;10.04;59.48;101353.03;4937226;28;114190;-61
2022/03/29 07:37:48;;;;;;;64.03;22.40;;;;;;;10.05;59.71;101360.06;4951623;28;124214;-62
2022/03/29 07:40:17;;;;;;;56.30;21.25;;;;;;;10.01;60.13;101358.47;4953435;28;124499;-61
2022/03/29 07:42:45;;;;;;;56.05;22.02;;;;;;;10.00;60.24;101362.00;4951735;28;114493;-61
2022/03/29 07:45:12;;;;;;;54.30;21.52;;;;;;;9.99;60.26;101355.00;4951677;28;114439;-62
2022/03/29 07:47:43;;;;;;;54.40;21.85;;;;;;;10.00;60.15;101356.72;4950926;28;124488;-62
2022/03/29 07:50:33;;;;;;;60.75;21.67;;;;;;;9.99;60.38;101350.56;4953360;28;124519;-62
2022/03/29 07:53:05;;;;;;;57.50;21.13;;;;;;;10.02;60.80;101349.59;4953779;28;114974;-62
2022/03/29 07:55:34;;;;;;;59.25;22.58;;;;;;;10.03;60.70;101351.34;4934569;28;114318;-62
2022/03/29 07:58:10;;;;;;;58.67;20.70;;;;;;;10.04;60.38;101348.63;4948963;28;124472;-62
2022/03/29 08:00:37;;;;;;;55.25;21.10;;;;;;;10.08;60.69;101344.09;4930532;28;123829;-62
2022/03/29 08:03:10;;;;;;;59.03;21.83;;;;;;;10.10;60.45;101348.41;4952524;28;114357;-61
2022/03/29 08:05:40;;;;;;;52.95;21.45;;;;;;;10.12;60.94;101345.72;4918632;28;113325;-62
2022/03/29 08:08:10;;;;;;;59.63;22.13;;;;;;;10.13;60.64;101348.31;4950133;28;125200;-62
2022/03/29 08:10:37;;;;;;;51.78;20.17;;;;;;;10.15;60.62;101350.88;4933001;28;123165;-61
2022/03/29 08:13:10;;;;;;;51.33;19.15;;;;;;;10.20;60.95;101359.53;4949551;28;113320;-61
2022/03/29 08:15:38;;;;;;;50.50;21.08;;;;;;;10.26;60.29;101348.72;4948156;28;113835;-61
2022/03/29 08:18:07;;;;;;;51.50;19.98;;;;;;;10.33;60.13;101349.41;4951056;28;124614;-61
2022/03/29 08:20:35;;;;;;;52.40;20.00;;;;;;;10.38;60.48;101357.19;4948983;28;123756;-61
2022/03/29 08:23:03;;;;;;;52.40;20.05;;;;;;;10.38;60.13;101347.47;4950767;28;115852;-62
2022/03/29 08:25:32;;;;;;;48.40;19.13;;;;;;;10.40;60.32;101353.56;4949961;28;114828;-62
2022/03/29 08:28:01;;;;;;;52.17;20.67;;;;;;;10.44;60.44;101356.97;4941533;28;124152;-62
2022/03/29 08:30:29;;;;;;;53.17;20.90;;;;;;;10.45;60.17;101350.75;4915074;28;123836;-61
2022/03/29 08:32:58;;;;;;;51.22;20.85;;;;;;;10.45;60.20;101348.09;4931737;28;114525;-62
2022/03/29 08:35:30;;;;;;;50.83;19.70;;;;;;;10.46;60.40;101339.25;4931288;28;114345;-62
2022/03/29 08:37:57;;;;;;;48.63;20.33;;;;;;;10.47;60.34;101335.66;4932242;28;124683;-62
2022/03/29 08:40:45;;;;;;;47.85;19.25;;;;;;;10.48;60.23;101337.41;4933322;28;123817;-62
2022/03/29 08:43:15;;;;;;;43.15;18.40;;;;;;;10.51;60.47;101332.88;4933840;28;116680;-62
2022/03/29 08:45:47;;;;;;;41.88;17.90;;;;;;;10.53;60.54;101335.47;4914184;28;114476;-62
2022/03/29 08:48:15;;;;;;;46.55;19.13;;;;;;;10.55;60.52;101335.38;4915526;28;123058;-62
2022/03/29 08:50:42;;;;;;;46.22;18.48;;;;;;;10.55;60.56;101333.63;4917048;28;123818;-62
2022/03/29 08:53:11;;;;;;;49.33;19.73;;;;;;;10.55;60.42;101325.66;4935581;28;113380;-62
2022/03/29 08:55:42;;;;;;;44.88;18.33;;;;;;;10.59;60.22;101335.22;4953360;28;114466;-62
2022/03/29 08:58:11;;;;;;;40.70;18.08;;;;;;;10.59;60.17;101332.56;4950578;28;123383;-61
2022/03/29 09:00:38;;;;;;;45.88;18.30;;;;;;;10.63;60.39;101326.25;4950933;28;123730;-61
2022/03/29 09:03:07;;;;;;;42.58;17.92;;;;;;;10.68;60.13;101332.25;4952228;28;114609;-61
2022/03/29 09:05:34;;;;;;;42.95;17.48;;;;;;;10.73;60.55;101331.19;4936018;28;113902;-61
2022/03/29 09:08:08;;;;;;;45.03;18.80;;;;;;;10.79;60.05;101326.50;4935175;28;122883;-61
2022/03/29 09:10:51;;;;;;;46.30;19.42;;;;;;;10.83;59.73;101327.25;4932712;28;123845;-61
2022/03/29 09:13:24;;;;;;;46.28;19.15;;;;;;;10.84;59.95;101334.31;4951599;28;115147;-61
2022/03/29 09:15:53;;;;;;;45.97;19.08;;;;;;;10.86;59.96;101337.75;4950403;28;114840;-61
2022/03/29 09:18:22;;;;;;;48.55;20.00;;;;;;;10.87;60.03;101336.84;4952149;28;124920;-62
2022/03/29 09:21:09;;;;;;;48.08;20.35;;;;;;;10.89;59.75;101343.81;4949474;28;123966;-62
2022/03/29 09:23:37;;;;;;;46.13;19.75;;;;;;;10.90;59.50;101342.00;4951977;28;114286;-61
2022/03/29 09:26:05;;;;;;;47.90;22.13;;;;;;;10.91;59.79;101339.31;4950751;28;114104;-61
2022/03/29 09:28:37;;;;;;;47.35;20.23;;;;;;;10.92;59.64;101337.50;4931397;28;123894;-61
2022/03/29 09:31:26;;;;;;;40.08;19.92;;;;;;;10.96;59.72;101330.31;4914657;28;124249;-62
2022/03/29 09:34:18;;;;;;;41.63;17.70;;;;;;;10.99;59.69;101333.69;4943070;28;114235;-61
2022/03/29 09:36:49;;;;;;;41.05;19.27;;;;;;;11.03;59.78;101327.34;4943388;28;113730;-61
2022/03/29 09:39:29;;;;;;;40.35;18.63;;;;;;;11.07;59.46;101331.59;4934667;28;124066;-61
2022/03/29 09:41:59;;;;;;;41.80;17.65;;;;;;;11.10;59.49;101336.78;4950520;28;123884;-62
2022/03/29 09:44:41;;;;;;;41.00;19.17;;;;;;;11.10;59.31;101331.50;4934486;28;113551;-62
2022/03/29 09:47:11;;;;;;;37.75;17.98;;;;;;;11.13;58.94;101325.19;4950245;28;114036;-62
2022/03/29 09:49:56;;;;;;;38.97;18.48;;;;;;;11.18;59.18;101322.38;4949410;28;123831;-62
2022/03/29 09:52:31;;;;;;;44.92;19.20;;;;;;;11.23;58.90;101317.75;4949277;28;124259;-62
2022/03/29 09:55:23;;;;;;;41.70;19.23;;;;;;;11.25;59.01;101314.13;4949890;28;114457;-62
2022/03/29 09:57:54;;;;;;;42.78;19.23;;;;;;;11.30;58.88;101316.56;4949790;28;114251;-62
2022/03/29 10:00:24;;;;;;;40.20;19.05;;;;;;;11.36;59.05;101311.03;4940853;28;124797;-62
2022/03/29 10:02:52;;;;;;;41.10;19.40;;;;;;;11.43;58.92;101312.53;4947574;28;124232;-62
2022/03/29 10:05:19;;;;;;;42.20;19.45;;;;;;;11.52;58.82;101310.41;4946924;28;115294;-62
2022/03/29 10:10:49;;;;;;;41.45;20.20;;;;;;;11.64;58.43;101315.19;4949127;28;123959;-62
2022/03/29 10:13:23;;;;;;;43.03;18.70;;;;;;;11.70;58.26;101304.34;4950604;28;123992;-62
2022/03/29 10:15:54;;;;;;;42.20;20.02;;;;;;;11.75;58.42;101302.31;4944556;28;114108;-62
2022/03/29 10:18:25;;;;;;;40.05;18.73;;;;;;;11.79;58.30;101298.63;4944158;28;114034;-62
2022/03/29 10:20:56;;;;;;;38.58;18.75;;;;;;;11.82;58.08;101295.84;4950449;28;98496;-61
2022/03/29 10:23:24;;;;;;;41.50;19.23;;;;;;;11.87;58.15;101290.34;4949057;28;123988;-61
2022/03/29 10:25:53;;;;;;;41.47;18.85;;;;;;;11.93;57.91;101295.41;4948302;28;113852;-62
2022/03/29 10:28:27;;;;;;;40.50;19.88;;;;;;;11.99;57.71;101294.28;4949342;28;114805;-62
2022/03/29 10:30:55;;;;;;;38.42;18.38;;;;;;;12.03;57.75;101295.88;4946228;28;124119;-62
2022/03/29 10:33:27;;;;;;;37.65;18.95;;;;;;;12.10;57.93;101297.31;4949399;28;124904;-61
2022/03/29 10:36:05;;;;;;;38.47;18.75;;;;;;;12.17;57.46;101293.47;4931646;28;114323;-62
2022/03/29 10:38:48;;;;;;;37.10;17.10;;;;;;;12.22;57.36;101296.78;4948977;28;114312;-62
2022/03/29 10:41:32;;;;;;;37.72;18.50;;;;;;;12.23;57.24;101295.84;4950151;28;124343;-61
2022/03/29 10:44:12;;;;;;;38.67;17.83;;;;;;;12.25;56.91;101295.78;4950269;28;124606;-62
2022/03/29 10:46:41;;;;;;;34.92;17.83;;;;;;;12.26;56.97;101293.06;4949766;28;114803;-61
2022/03/29 10:49:17;;;;;;;38.40;18.83;;;;;;;12.26;56.78;101287.75;4949067;28;114399;-61
2022/03/29 10:51:44;;;;;;;35.53;17.45;;;;;;;12.30;56.85;101272.53;4948068;28;124027;-62
2022/03/29 10:54:36;;;;;;;36.15;17.98;;;;;;;12.37;56.86;101267.78;4949169;28;124481;-61
2022/03/29 10:57:31;;;;;;;36.17;17.30;;;;;;;12.47;56.89;101271.78;4947246;28;115244;-61
2022/03/29 11:00:08;;;;;;;37.20;18.10;;;;;;;12.63;56.58;101263.94;4947704;28;115337;-61
2022/03/29 11:02:36;;;;;;;38.78;18.45;;;;;;;12.74;56.55;101256.31;4946137;28;124271;-61
2022/03/29 11:05:09;;;;;;;32.10;17.42;;;;;;;12.89;56.27;101252.06;4948019;28;123657;-62
2022/03/29 11:07:39;;;;;;;35.92;17.80;;;;;;;13.03;56.20;101249.63;4950727;28;114366;-62
2022/03/29 11:10:15;;;;;;;34.10;17.65;;;;;;;13.21;56.20;101252.28;4932062;28;113373;-62
2022/03/29 11:12:49;;;;;;;32.83;16.63;;;;;;;13.35;55.58;101252.47;4948268;28;123798;-62
2022/03/29 11:15:25;;;;;;;35.47;17.05;;;;;;;13.47;55.29;101243.03;4950162;28;124021;-62
2022/03/29 11:17:55;;;;;;;33.20;16.73;;;;;;;13.58;55.18;101246.03;4917044;28;113295;-62
2022/03/29 11:20:32;;;;;;;34.75;18.08;;;;;;;13.70;54.99;101249.84;4948780;28;114744;-62
2022/03/29 11:23:08;;;;;;;36.20;17.05;;;;;;;13.80;54.79;101236.91;4949001;28;125147;-62
2022/03/29 11:25:39;;;;;;;32.38;16.85;;;;;;;13.91;54.59;101237.22;4929215;28;122732;-62
2022/03/29 11:28:16;;;;;;;34.22;17.05;;;;;;;13.96;54.19;101227.19;4949521;28;114629;-62